sensor_id;sensor_type;location;lat;lon;timestamp;temperature;humidity
65972;SHT31;52726;48.852;9.152;2023-09-19T00:02:14;17.29;82.91
65972;SHT31;52726;48.852;9.152;2023-09-19T00:04:39;17.25;83.07
65972;SHT31;52726;48.852;9.152;2023-09-19T00:07:05;17.23;83.04
65972;SHT31;52726;48.852;9.152;2023-09-19T00:09:31;17.25;83.53
65972;SHT31;52726;48.852;9.152;2023-09-19T00:12:02;17.22;83.66
65972;SHT31;52726;48.852;9.152;2023-09-19T00:14:28;17.22;83.29
65972;SHT31;52726;48.852;9.152;2023-09-19T00:16:53;17.20;83.58
65972;SHT31;52726;48.852;9.152;2023-09-19T00:19:20;17.22;83.34
65972;SHT31;52726;48.852;9.152;2023-09-19T00:21:45;17.22;83.41
65972;SHT31;52726;48.852;9.152;2023-09-19T00:24:12;17.22;83.31
65972;SHT31;52726;48.852;9.152;2023-09-19T00:26:39;17.20;83.23
65972;SHT31;52726;48.852;9.152;2023-09-19T00:29:05;17.22;82.98
65972;SHT31;52726;48.852;9.152;2023-09-19T00:31:34;17.20;83.11
65972;SHT31;52726;48.852;9.152;2023-09-19T00:33:59;17.22;83.12
65972;SHT31;52726;48.852;9.152;2023-09-19T00:36:31;17.22;83.12
65972;SHT31;52726;48.852;9.152;2023-09-19T00:38:56;17.20;82.98
65972;SHT31;52726;48.852;9.152;2023-09-19T00:41:22;17.23;82.82
65972;SHT31;52726;48.852;9.152;2023-09-19T00:43:50;17.22;82.82
65972;SHT31;52726;48.852;9.152;2023-09-19T00:46:19;17.18;83.25
65972;SHT31;52726;48.852;9.152;2023-09-19T00:48:45;17.16;83.01
65972;SHT31;52726;48.852;9.152;2023-09-19T00:51:11;17.14;83.16
65972;SHT31;52726;48.852;9.152;2023-09-19T00:53:39;17.12;83.39
65972;SHT31;52726;48.852;9.152;2023-09-19T00:56:05;17.09;83.61
65972;SHT31;52726;48.852;9.152;2023-09-19T00:58:32;17.11;83.74
65972;SHT31;52726;48.852;9.152;2023-09-19T01:00:59;17.06;83.59
65972;SHT31;52726;48.852;9.152;2023-09-19T01:03:24;17.08;83.77
65972;SHT31;52726;48.852;9.152;2023-09-19T01:05:50;17.05;83.93
65972;SHT31;52726;48.852;9.152;2023-09-19T01:08:15;17.05;83.56
65972;SHT31;52726;48.852;9.152;2023-09-19T01:10:49;17.05;83.53
65972;SHT31;52726;48.852;9.152;2023-09-19T01:13:29;17.05;84.01
65972;SHT31;52726;48.852;9.152;2023-09-19T01:16:16;17.04;83.51
65972;SHT31;52726;48.852;9.152;2023-09-19T01:22:08;17.05;83.40
65972;SHT31;52726;48.852;9.152;2023-09-19T01:30:10;16.99;83.75
65972;SHT31;52726;48.852;9.152;2023-09-19T01:32:39;16.99;83.27
65972;SHT31;52726;48.852;9.152;2023-09-19T01:35:06;16.99;83.73
65972;SHT31;52726;48.852;9.152;2023-09-19T01:37:33;16.95;83.80
65972;SHT31;52726;48.852;9.152;2023-09-19T01:40:09;16.96;83.50
65972;SHT31;52726;48.852;9.152;2023-09-19T01:42:48;16.91;84.11
65972;SHT31;52726;48.852;9.152;2023-09-19T01:45:42;16.85;84.08
65972;SHT31;52726;48.852;9.152;2023-09-19T01:50:56;16.74;84.49
65972;SHT31;52726;48.852;9.152;2023-09-19T01:53:26;16.74;84.68
65972;SHT31;52726;48.852;9.152;2023-09-19T01:55:55;16.69;84.83
65972;SHT31;52726;48.852;9.152;2023-09-19T01:58:42;16.64;85.00
65972;SHT31;52726;48.852;9.152;2023-09-19T02:01:11;16.61;85.22
65972;SHT31;52726;48.852;9.152;2023-09-19T02:03:39;16.61;85.23
65972;SHT31;52726;48.852;9.152;2023-09-19T02:06:05;16.54;85.24
65972;SHT31;52726;48.852;9.152;2023-09-19T02:08:36;16.54;84.82
65972;SHT31;52726;48.852;9.152;2023-09-19T02:11:02;16.54;85.14
65972;SHT31;52726;48.852;9.152;2023-09-19T02:13:27;16.49;85.20
65972;SHT31;52726;48.852;9.152;2023-09-19T02:15:53;16.43;85.39
65972;SHT31;52726;48.852;9.152;2023-09-19T02:18:18;16.41;85.22
65972;SHT31;52726;48.852;9.152;2023-09-19T02:20:44;16.39;85.28
65972;SHT31;52726;48.852;9.152;2023-09-19T02:23:11;16.37;85.21
65972;SHT31;52726;48.852;9.152;2023-09-19T02:25:38;16.31;85.24
65972;SHT31;52726;48.852;9.152;2023-09-19T02:28:05;16.31;85.35
65972;SHT31;52726;48.852;9.152;2023-09-19T02:30:31;16.27;85.30
65972;SHT31;52726;48.852;9.152;2023-09-19T02:32:57;16.24;85.16
65972;SHT31;52726;48.852;9.152;2023-09-19T02:35:23;16.23;85.41
65972;SHT31;52726;48.852;9.152;2023-09-19T02:37:48;16.23;85.27
65972;SHT31;52726;48.852;9.152;2023-09-19T02:40:14;16.20;85.36
65972;SHT31;52726;48.852;9.152;2023-09-19T02:42:53;16.22;85.15
65972;SHT31;52726;48.852;9.152;2023-09-19T02:45:20;16.23;84.98
65972;SHT31;52726;48.852;9.152;2023-09-19T02:47:48;16.23;85.14
65972;SHT31;52726;48.852;9.152;2023-09-19T02:50:15;16.26;84.97
65972;SHT31;52726;48.852;9.152;2023-09-19T02:52:42;16.31;84.71
65972;SHT31;52726;48.852;9.152;2023-09-19T02:55:12;16.33;84.52
65972;SHT31;52726;48.852;9.152;2023-09-19T02:57:46;16.39;84.51
65972;SHT31;52726;48.852;9.152;2023-09-19T03:00:12;16.40;84.26
65972;SHT31;52726;48.852;9.152;2023-09-19T03:02:37;16.46;84.12
65972;SHT31;52726;48.852;9.152;2023-09-19T03:05:05;16.49;84.17
65972;SHT31;52726;48.852;9.152;2023-09-19T03:07:31;16.51;83.97
65972;SHT31;52726;48.852;9.152;2023-09-19T03:09:56;16.50;83.90
65972;SHT31;52726;48.852;9.152;2023-09-19T03:12:22;16.53;83.99
65972;SHT31;52726;48.852;9.152;2023-09-19T03:14:47;16.54;83.80
65972;SHT31;52726;48.852;9.152;2023-09-19T03:17:13;16.58;84.18
65972;SHT31;52726;48.852;9.152;2023-09-19T03:19:40;16.58;83.79
65972;SHT31;52726;48.852;9.152;2023-09-19T03:22:05;16.57;83.86
65972;SHT31;52726;48.852;9.152;2023-09-19T03:24:31;16.58;84.03
65972;SHT31;52726;48.852;9.152;2023-09-19T03:26:59;16.57;84.21
65972;SHT31;52726;48.852;9.152;2023-09-19T03:29:24;16.60;84.32
65972;SHT31;52726;48.852;9.152;2023-09-19T03:31:50;16.58;84.31
65972;SHT31;52726;48.852;9.152;2023-09-19T03:34:16;16.57;84.69
65972;SHT31;52726;48.852;9.152;2023-09-19T03:36:42;16.54;85.06
65972;SHT31;52726;48.852;9.152;2023-09-19T03:39:07;16.53;85.27
65972;SHT31;52726;48.852;9.152;2023-09-19T03:41:33;16.50;85.54
65972;SHT31;52726;48.852;9.152;2023-09-19T03:44:01;16.47;86.17
65972;SHT31;52726;48.852;9.152;2023-09-19T03:46:27;16.43;86.53
65972;SHT31;52726;48.852;9.152;2023-09-19T03:48:53;16.40;87.45
65972;SHT31;52726;48.852;9.152;2023-09-19T03:51:19;16.33;88.15
65972;SHT31;52726;48.852;9.152;2023-09-19T03:53:45;16.26;88.53
65972;SHT31;52726;48.852;9.152;2023-09-19T03:56:10;16.23;89.40
65972;SHT31;52726;48.852;9.152;2023-09-19T03:58:36;16.20;89.18
65972;SHT31;52726;48.852;9.152;2023-09-19T04:01:04;16.19;89.69
65972;SHT31;52726;48.852;9.152;2023-09-19T04:03:32;16.16;89.99
65972;SHT31;52726;48.852;9.152;2023-09-19T04:06:12;16.13;90.01
65972;SHT31;52726;48.852;9.152;2023-09-19T04:08:37;16.10;89.87
65972;SHT31;52726;48.852;9.152;2023-09-19T04:11:02;16.08;89.51
65972;SHT31;52726;48.852;9.152;2023-09-19T04:13:28;16.09;89.26
65972;SHT31;52726;48.852;9.152;2023-09-19T04:15:53;16.09;89.52
65972;SHT31;52726;48.852;9.152;2023-09-19T04:18:19;16.12;89.80
65972;SHT31;52726;48.852;9.152;2023-09-19T04:20:52;16.08;89.60
65972;SHT31;52726;48.852;9.152;2023-09-19T04:23:25;16.02;89.71
65972;SHT31;52726;48.852;9.152;2023-09-19T04:25:50;16.03;90.09
65972;SHT31;52726;48.852;9.152;2023-09-19T04:28:16;16.03;90.38
65972;SHT31;52726;48.852;9.152;2023-09-19T04:30:41;16.06;90.60
65972;SHT31;52726;48.852;9.152;2023-09-19T04:33:07;16.03;90.07
65972;SHT31;52726;48.852;9.152;2023-09-19T04:35:33;16.02;89.79
65972;SHT31;52726;48.852;9.152;2023-09-19T04:37:59;16.03;89.65
65972;SHT31;52726;48.852;9.152;2023-09-19T04:40:34;16.03;90.15
65972;SHT31;52726;48.852;9.152;2023-09-19T04:43:00;16.05;90.42
65972;SHT31;52726;48.852;9.152;2023-09-19T04:45:27;16.05;90.71
65972;SHT31;52726;48.852;9.152;2023-09-19T04:47:53;16.01;90.31
65972;SHT31;52726;48.852;9.152;2023-09-19T04:50:39;16.02;90.93
65972;SHT31;52726;48.852;9.152;2023-09-19T04:53:10;15.99;91.38
65972;SHT31;52726;48.852;9.152;2023-09-19T04:55:36;16.01;91.91
65972;SHT31;52726;48.852;9.152;2023-09-19T04:58:01;15.96;91.87
65972;SHT31;52726;48.852;9.152;2023-09-19T05:00:27;15.98;92.34
65972;SHT31;52726;48.852;9.152;2023-09-19T05:02:56;15.96;92.46
65972;SHT31;52726;48.852;9.152;2023-09-19T05:05:22;15.93;92.28
65972;SHT31;52726;48.852;9.152;2023-09-19T05:07:49;15.93;92.40
65972;SHT31;52726;48.852;9.152;2023-09-19T05:10:15;15.91;92.17
65972;SHT31;52726;48.852;9.152;2023-09-19T05:12:41;15.86;92.64
65972;SHT31;52726;48.852;9.152;2023-09-19T05:15:07;15.89;92.74
65972;SHT31;52726;48.852;9.152;2023-09-19T05:17:34;15.89;92.97
65972;SHT31;52726;48.852;9.152;2023-09-19T05:20:00;15.88;92.85
65972;SHT31;52726;48.852;9.152;2023-09-19T05:22:57;15.89;93.02
65972;SHT31;52726;48.852;9.152;2023-09-19T05:25:22;15.86;93.33
65972;SHT31;52726;48.852;9.152;2023-09-19T05:27:48;15.81;93.67
65972;SHT31;52726;48.852;9.152;2023-09-19T05:30:13;15.74;94.03
65972;SHT31;52726;48.852;9.152;2023-09-19T05:32:40;15.68;94.11
65972;SHT31;52726;48.852;9.152;2023-09-19T05:35:05;15.66;94.54
65972;SHT31;52726;48.852;9.152;2023-09-19T05:37:34;15.65;94.64
65972;SHT31;52726;48.852;9.152;2023-09-19T05:40:00;15.66;94.61
65972;SHT31;52726;48.852;9.152;2023-09-19T05:42:26;15.61;94.14
65972;SHT31;52726;48.852;9.152;2023-09-19T05:44:52;15.58;94.07
65972;SHT31;52726;48.852;9.152;2023-09-19T05:47:17;15.58;93.88
65972;SHT31;52726;48.852;9.152;2023-09-19T05:49:43;15.55;93.70
65972;SHT31;52726;48.852;9.152;2023-09-19T05:52:09;15.47;92.58
65972;SHT31;52726;48.852;9.152;2023-09-19T05:54:34;15.38;92.03
65972;SHT31;52726;48.852;9.152;2023-09-19T05:57:00;15.28;91.34
65972;SHT31;52726;48.852;9.152;2023-09-19T05:59:27;15.23;90.97
65972;SHT31;52726;48.852;9.152;2023-09-19T06:01:52;15.11;90.52
65972;SHT31;52726;48.852;9.152;2023-09-19T06:04:18;15.06;91.68
65972;SHT31;52726;48.852;9.152;2023-09-19T06:06:44;14.95;91.56
65972;SHT31;52726;48.852;9.152;2023-09-19T06:09:10;14.85;91.21
65972;SHT31;52726;48.852;9.152;2023-09-19T06:11:35;14.80;91.96
65972;SHT31;52726;48.852;9.152;2023-09-19T06:14:04;14.79;92.38
65972;SHT31;52726;48.852;9.152;2023-09-19T06:16:30;14.75;92.20
65972;SHT31;52726;48.852;9.152;2023-09-19T06:18:57;14.79;92.04
65972;SHT31;52726;48.852;9.152;2023-09-19T06:21:23;14.89;92.20
65972;SHT31;52726;48.852;9.152;2023-09-19T06:23:48;14.95;92.37
65972;SHT31;52726;48.852;9.152;2023-09-19T06:26:14;15.03;92.65
65972;SHT31;52726;48.852;9.152;2023-09-19T06:28:40;15.07;92.16
65972;SHT31;52726;48.852;9.152;2023-09-19T06:31:06;15.24;92.33
65972;SHT31;52726;48.852;9.152;2023-09-19T06:33:35;15.33;91.64
65972;SHT31;52726;48.852;9.152;2023-09-19T06:36:03;15.51;91.52
65972;SHT31;52726;48.852;9.152;2023-09-19T06:38:29;15.61;90.93
65972;SHT31;52726;48.852;9.152;2023-09-19T06:40:55;15.65;90.40
65972;SHT31;52726;48.852;9.152;2023-09-19T06:43:20;15.78;90.35
65972;SHT31;52726;48.852;9.152;2023-09-19T06:45:46;15.81;89.60
65972;SHT31;52726;48.852;9.152;2023-09-19T06:48:11;15.88;89.14
65972;SHT31;52726;48.852;9.152;2023-09-19T06:50:37;16.08;89.61
65972;SHT31;52726;48.852;9.152;2023-09-19T06:53:03;16.29;89.59
65972;SHT31;52726;48.852;9.152;2023-09-19T06:55:29;16.31;88.46
65972;SHT31;52726;48.852;9.152;2023-09-19T06:57:56;16.57;87.88
65972;SHT31;52726;48.852;9.152;2023-09-19T07:00:22;16.91;86.74
65972;SHT31;52726;48.852;9.152;2023-09-19T07:03:02;17.25;86.36
65972;SHT31;52726;48.852;9.152;2023-09-19T07:05:30;17.46;84.94
65972;SHT31;52726;48.852;9.152;2023-09-19T07:07:56;17.60;83.45
65972;SHT31;52726;48.852;9.152;2023-09-19T07:10:24;17.51;84.33
65972;SHT31;52726;48.852;9.152;2023-09-19T07:13:04;17.55;84.24
65972;SHT31;52726;48.852;9.152;2023-09-19T07:15:34;17.53;84.31
65972;SHT31;52726;48.852;9.152;2023-09-19T07:18:02;17.44;84.45
65972;SHT31;52726;48.852;9.152;2023-09-19T07:20:27;17.42;84.33
65972;SHT31;52726;48.852;9.152;2023-09-19T07:22:56;17.30;84.53
65972;SHT31;52726;48.852;9.152;2023-09-19T07:25:25;17.32;84.10
65972;SHT31;52726;48.852;9.152;2023-09-19T07:27:50;17.32;85.38
65972;SHT31;52726;48.852;9.152;2023-09-19T07:30:16;17.32;83.72
65972;SHT31;52726;48.852;9.152;2023-09-19T07:32:42;17.36;82.98
65972;SHT31;52726;48.852;9.152;2023-09-19T07:35:07;17.43;82.77
65972;SHT31;52726;48.852;9.152;2023-09-19T07:37:33;17.51;82.20
65972;SHT31;52726;48.852;9.152;2023-09-19T07:40:00;17.69;81.73
65972;SHT31;52726;48.852;9.152;2023-09-19T07:42:37;17.64;80.98
65972;SHT31;52726;48.852;9.152;2023-09-19T07:45:08;17.78;81.41
65972;SHT31;52726;48.852;9.152;2023-09-19T07:47:34;18.00;80.32
65972;SHT31;52726;48.852;9.152;2023-09-19T07:50:01;18.26;80.21
65972;SHT31;52726;48.852;9.152;2023-09-19T07:52:28;18.12;79.47
65972;SHT31;52726;48.852;9.152;2023-09-19T07:54:54;18.29;80.14
65972;SHT31;52726;48.852;9.152;2023-09-19T07:57:20;18.43;79.76
65972;SHT31;52726;48.852;9.152;2023-09-19T07:59:45;18.42;79.30
65972;SHT31;52726;48.852;9.152;2023-09-19T08:02:11;18.40;78.44
65972;SHT31;52726;48.852;9.152;2023-09-19T08:04:42;18.46;77.74
65972;SHT31;52726;48.852;9.152;2023-09-19T08:07:08;18.63;77.78
65972;SHT31;52726;48.852;9.152;2023-09-19T08:09:36;18.88;77.77
65972;SHT31;52726;48.852;9.152;2023-09-19T08:12:04;19.24;76.78
65972;SHT31;52726;48.852;9.152;2023-09-19T08:14:29;19.32;74.75
65972;SHT31;52726;48.852;9.152;2023-09-19T08:16:58;19.62;74.46
65972;SHT31;52726;48.852;9.152;2023-09-19T08:19:27;19.90;73.24
65972;SHT31;52726;48.852;9.152;2023-09-19T08:21:57;20.20;72.32
65972;SHT31;52726;48.852;9.152;2023-09-19T08:24:26;20.18;72.85
65972;SHT31;52726;48.852;9.152;2023-09-19T08:26:57;20.04;73.52
65972;SHT31;52726;48.852;9.152;2023-09-19T08:29:24;20.17;71.81
65972;SHT31;52726;48.852;9.152;2023-09-19T08:31:56;20.32;72.32
65972;SHT31;52726;48.852;9.152;2023-09-19T08:34:23;20.52;70.91
65972;SHT31;52726;48.852;9.152;2023-09-19T08:36:52;20.86;71.16
65972;SHT31;52726;48.852;9.152;2023-09-19T08:39:22;21.30;70.18
65972;SHT31;52726;48.852;9.152;2023-09-19T08:41:48;21.61;68.82
65972;SHT31;52726;48.852;9.152;2023-09-19T08:44:13;21.55;68.02
65972;SHT31;52726;48.852;9.152;2023-09-19T08:46:41;21.34;69.11
65972;SHT31;52726;48.852;9.152;2023-09-19T08:49:27;21.75;68.18
65972;SHT31;52726;48.852;9.152;2023-09-19T08:52:05;21.38;68.30
65972;SHT31;52726;48.852;9.152;2023-09-19T08:54:37;21.19;69.35
65972;SHT31;52726;48.852;9.152;2023-09-19T08:57:06;20.64;68.63
65972;SHT31;52726;48.852;9.152;2023-09-19T08:59:41;20.27;69.98
65972;SHT31;52726;48.852;9.152;2023-09-19T09:02:11;20.76;67.54
65972;SHT31;52726;48.852;9.152;2023-09-19T09:04:41;21.06;66.88
65972;SHT31;52726;48.852;9.152;2023-09-19T09:07:12;21.50;65.32
65972;SHT31;52726;48.852;9.152;2023-09-19T09:09:39;21.57;64.14
65972;SHT31;52726;48.852;9.152;2023-09-19T09:12:10;21.75;64.45
65972;SHT31;52726;48.852;9.152;2023-09-19T09:14:39;21.98;64.12
65972;SHT31;52726;48.852;9.152;2023-09-19T09:17:04;22.37;62.52
65972;SHT31;52726;48.852;9.152;2023-09-19T09:19:33;22.17;63.40
65972;SHT31;52726;48.852;9.152;2023-09-19T09:22:30;21.98;62.07
65972;SHT31;52726;48.852;9.152;2023-09-19T09:24:57;21.59;60.99
65972;SHT31;52726;48.852;9.152;2023-09-19T09:27:26;21.85;61.49
65972;SHT31;52726;48.852;9.152;2023-09-19T09:29:56;22.33;62.75
65972;SHT31;52726;48.852;9.152;2023-09-19T09:32:25;22.41;61.10
65972;SHT31;52726;48.852;9.152;2023-09-19T09:34:55;21.63;61.55
65972;SHT31;52726;48.852;9.152;2023-09-19T09:37:22;21.62;60.84
65972;SHT31;52726;48.852;9.152;2023-09-19T09:39:57;21.66;59.59
65972;SHT31;52726;48.852;9.152;2023-09-19T09:42:33;21.62;62.07
65972;SHT31;52726;48.852;9.152;2023-09-19T09:45:19;21.83;63.51
65972;SHT31;52726;48.852;9.152;2023-09-19T09:48:07;21.35;61.84
65972;SHT31;52726;48.852;9.152;2023-09-19T09:50:46;21.02;62.54
65972;SHT31;52726;48.852;9.152;2023-09-19T09:53:28;21.13;62.04
65972;SHT31;52726;48.852;9.152;2023-09-19T09:56:07;21.11;62.60
65972;SHT31;52726;48.852;9.152;2023-09-19T10:01:13;22.00;60.50
65972;SHT31;52726;48.852;9.152;2023-09-19T10:03:41;21.82;56.91
65972;SHT31;52726;48.852;9.152;2023-09-19T10:06:12;21.78;58.83
65972;SHT31;52726;48.852;9.152;2023-09-19T10:09:07;21.85;59.92
65972;SHT31;52726;48.852;9.152;2023-09-19T10:11:47;21.81;57.04
65972;SHT31;52726;48.852;9.152;2023-09-19T10:21:05;22.78;58.59
65972;SHT31;52726;48.852;9.152;2023-09-19T10:23:34;22.84;55.44
65972;SHT31;52726;48.852;9.152;2023-09-19T10:26:02;22.94;55.72
65972;SHT31;52726;48.852;9.152;2023-09-19T10:28:33;22.37;55.53
65972;SHT31;52726;48.852;9.152;2023-09-19T10:31:03;22.29;56.03
65972;SHT31;52726;48.852;9.152;2023-09-19T10:33:36;22.63;58.12
65972;SHT31;52726;48.852;9.152;2023-09-19T10:36:07;22.65;56.79
65972;SHT31;52726;48.852;9.152;2023-09-19T10:38:37;22.65;56.06
65972;SHT31;52726;48.852;9.152;2023-09-19T10:41:06;22.33;56.33
65972;SHT31;52726;48.852;9.152;2023-09-19T10:43:38;22.07;56.32
65972;SHT31;52726;48.852;9.152;2023-09-19T10:46:08;22.23;57.67
65972;SHT31;52726;48.852;9.152;2023-09-19T10:48:50;22.12;56.83
65972;SHT31;52726;48.852;9.152;2023-09-19T10:51:44;22.26;57.11
65972;SHT31;52726;48.852;9.152;2023-09-19T10:54:13;22.27;58.42
65972;SHT31;52726;48.852;9.152;2023-09-19T10:57:06;22.14;57.96
65972;SHT31;52726;48.852;9.152;2023-09-19T11:06:02;21.93;57.02
65972;SHT31;52726;48.852;9.152;2023-09-19T11:08:31;21.90;57.03
65972;SHT31;52726;48.852;9.152;2023-09-19T11:11:02;22.47;57.88
65972;SHT31;52726;48.852;9.152;2023-09-19T11:13:30;22.23;54.29
65972;SHT31;52726;48.852;9.152;2023-09-19T11:16:05;22.30;54.45
65972;SHT31;52726;48.852;9.152;2023-09-19T11:18:54;22.23;54.69
65972;SHT31;52726;48.852;9.152;2023-09-19T11:26:49;21.93;56.49
65972;SHT31;52726;48.852;9.152;2023-09-19T11:29:24;21.95;56.17
65972;SHT31;52726;48.852;9.152;2023-09-19T11:31:50;21.65;61.35
65972;SHT31;52726;48.852;9.152;2023-09-19T11:37:00;21.23;61.64
65972;SHT31;52726;48.852;9.152;2023-09-19T11:39:29;21.02;60.87
65972;SHT31;52726;48.852;9.152;2023-09-19T11:41:54;21.10;60.88
65972;SHT31;52726;48.852;9.152;2023-09-19T11:44:32;21.40;59.91
65972;SHT31;52726;48.852;9.152;2023-09-19T11:49:44;21.44;59.66
65972;SHT31;52726;48.852;9.152;2023-09-19T11:52:24;21.48;58.42
65972;SHT31;52726;48.852;9.152;2023-09-19T11:55:19;21.52;58.41
65972;SHT31;52726;48.852;9.152;2023-09-19T11:57:50;21.66;59.33
65972;SHT31;52726;48.852;9.152;2023-09-19T12:03:53;21.51;59.56
65972;SHT31;52726;48.852;9.152;2023-09-19T12:06:26;21.38;61.07
65972;SHT31;52726;48.852;9.152;2023-09-19T12:08:58;21.14;59.52
65972;SHT31;52726;48.852;9.152;2023-09-19T12:11:46;21.30;59.69
65972;SHT31;52726;48.852;9.152;2023-09-19T12:14:21;21.38;59.72
65972;SHT31;52726;48.852;9.152;2023-09-19T12:16:54;21.41;58.67
65972;SHT31;52726;48.852;9.152;2023-09-19T12:19:21;21.54;59.27
65972;SHT31;52726;48.852;9.152;2023-09-19T12:22:08;21.55;57.29
65972;SHT31;52726;48.852;9.152;2023-09-19T12:24:44;21.48;58.56
65972;SHT31;52726;48.852;9.152;2023-09-19T12:27:19;21.81;55.79
65972;SHT31;52726;48.852;9.152;2023-09-19T12:29:51;21.85;56.23
65972;SHT31;52726;48.852;9.152;2023-09-19T12:46:10;21.89;55.32
65972;SHT31;52726;48.852;9.152;2023-09-19T12:48:36;21.78;56.45
65972;SHT31;52726;48.852;9.152;2023-09-19T12:51:06;21.78;56.16
65972;SHT31;52726;48.852;9.152;2023-09-19T12:53:57;21.82;54.27
65972;SHT31;52726;48.852;9.152;2023-09-19T13:10:39;22.05;55.97
65972;SHT31;52726;48.852;9.152;2023-09-19T13:20:26;22.46;53.92
65972;SHT31;52726;48.852;9.152;2023-09-19T13:22:57;22.58;53.57
65972;SHT31;52726;48.852;9.152;2023-09-19T13:25:33;22.67;54.76
65972;SHT31;52726;48.852;9.152;2023-09-19T13:28:00;22.88;54.10
65972;SHT31;52726;48.852;9.152;2023-09-19T13:30:32;23.01;52.63
65972;SHT31;52726;48.852;9.152;2023-09-19T13:33:08;23.01;53.03
65972;SHT31;52726;48.852;9.152;2023-09-19T13:35:35;22.94;52.34
65972;SHT31;52726;48.852;9.152;2023-09-19T13:38:04;23.11;53.84
65972;SHT31;52726;48.852;9.152;2023-09-19T13:40:32;23.19;53.05
65972;SHT31;52726;48.852;9.152;2023-09-19T13:43:00;23.24;50.06
65972;SHT31;52726;48.852;9.152;2023-09-19T13:45:26;23.27;52.60
65972;SHT31;52726;48.852;9.152;2023-09-19T13:47:56;23.34;53.33
65972;SHT31;52726;48.852;9.152;2023-09-19T13:50:24;23.29;51.08
65972;SHT31;52726;48.852;9.152;2023-09-19T13:52:53;22.99;52.81
65972;SHT31;52726;48.852;9.152;2023-09-19T13:55:19;22.63;53.59
65972;SHT31;52726;48.852;9.152;2023-09-19T13:57:48;22.81;54.91
65972;SHT31;52726;48.852;9.152;2023-09-19T14:00:20;23.06;53.36
65972;SHT31;52726;48.852;9.152;2023-09-19T14:02:53;23.34;52.20
65972;SHT31;52726;48.852;9.152;2023-09-19T14:05:19;23.39;52.06
65972;SHT31;52726;48.852;9.152;2023-09-19T14:07:48;23.32;53.68
65972;SHT31;52726;48.852;9.152;2023-09-19T14:10:13;23.34;52.49
65972;SHT31;52726;48.852;9.152;2023-09-19T14:12:39;23.18;51.62
65972;SHT31;52726;48.852;9.152;2023-09-19T14:15:10;22.90;53.03
65972;SHT31;52726;48.852;9.152;2023-09-19T14:17:35;23.05;54.37
65972;SHT31;52726;48.852;9.152;2023-09-19T14:20:01;23.12;53.31
65972;SHT31;52726;48.852;9.152;2023-09-19T14:22:26;23.09;53.13
65972;SHT31;52726;48.852;9.152;2023-09-19T14:24:52;23.03;52.61
65972;SHT31;52726;48.852;9.152;2023-09-19T14:27:18;23.06;51.71
65972;SHT31;52726;48.852;9.152;2023-09-19T14:29:43;23.06;52.50
65972;SHT31;52726;48.852;9.152;2023-09-19T14:32:09;23.02;52.58
65972;SHT31;52726;48.852;9.152;2023-09-19T14:34:35;22.84;50.63
65972;SHT31;52726;48.852;9.152;2023-09-19T14:37:01;22.72;50.48
65972;SHT31;52726;48.852;9.152;2023-09-19T14:39:27;22.87;51.19
65972;SHT31;52726;48.852;9.152;2023-09-19T14:41:53;23.01;51.61
65972;SHT31;52726;48.852;9.152;2023-09-19T14:44:19;23.03;50.63
65972;SHT31;52726;48.852;9.152;2023-09-19T14:46:44;22.95;51.20
65972;SHT31;52726;48.852;9.152;2023-09-19T14:49:11;22.91;52.15
65972;SHT31;52726;48.852;9.152;2023-09-19T14:51:37;23.01;52.07
65972;SHT31;52726;48.852;9.152;2023-09-19T14:54:04;23.11;51.76
65972;SHT31;52726;48.852;9.152;2023-09-19T14:56:30;23.12;53.19
65972;SHT31;52726;48.852;9.152;2023-09-19T14:58:56;23.03;51.48
65972;SHT31;52726;48.852;9.152;2023-09-19T15:01:21;22.91;51.29
65972;SHT31;52726;48.852;9.152;2023-09-19T15:03:47;22.82;52.61
65972;SHT31;52726;48.852;9.152;2023-09-19T15:06:14;22.81;50.59
65972;SHT31;52726;48.852;9.152;2023-09-19T15:08:41;22.74;51.67
65972;SHT31;52726;48.852;9.152;2023-09-19T15:11:11;22.55;51.79
65972;SHT31;52726;48.852;9.152;2023-09-19T15:13:37;22.51;51.59
65972;SHT31;52726;48.852;9.152;2023-09-19T15:16:04;22.34;51.53
65972;SHT31;52726;48.852;9.152;2023-09-19T15:18:30;22.17;52.26
65972;SHT31;52726;48.852;9.152;2023-09-19T15:21:00;22.09;52.86
65972;SHT31;52726;48.852;9.152;2023-09-19T15:23:26;22.07;53.69
65972;SHT31;52726;48.852;9.152;2023-09-19T15:25:53;22.10;53.05
65972;SHT31;52726;48.852;9.152;2023-09-19T15:28:21;22.17;52.40
65972;SHT31;52726;48.852;9.152;2023-09-19T15:30:56;22.19;52.96
65972;SHT31;52726;48.852;9.152;2023-09-19T15:33:22;22.13;52.85
65972;SHT31;52726;48.852;9.152;2023-09-19T15:35:47;22.13;53.38
65972;SHT31;52726;48.852;9.152;2023-09-19T15:38:13;22.03;51.55
65972;SHT31;52726;48.852;9.152;2023-09-19T15:40:46;21.92;52.48
65972;SHT31;52726;48.852;9.152;2023-09-19T15:43:11;21.82;52.64
65972;SHT31;52726;48.852;9.152;2023-09-19T15:45:37;21.68;52.93
65972;SHT31;52726;48.852;9.152;2023-09-19T15:48:03;21.57;52.51
65972;SHT31;52726;48.852;9.152;2023-09-19T15:50:30;21.51;53.95
65972;SHT31;52726;48.852;9.152;2023-09-19T15:52:55;21.48;54.10
65972;SHT31;52726;48.852;9.152;2023-09-19T15:55:21;21.42;53.84
65972;SHT31;52726;48.852;9.152;2023-09-19T16:01:08;21.34;55.91
65972;SHT31;52726;48.852;9.152;2023-09-19T16:03:35;21.30;56.13
65972;SHT31;52726;48.852;9.152;2023-09-19T16:06:01;21.24;56.51
65972;SHT31;52726;48.852;9.152;2023-09-19T16:08:27;21.17;55.82
65972;SHT31;52726;48.852;9.152;2023-09-19T16:10:52;21.14;55.76
65972;SHT31;52726;48.852;9.152;2023-09-19T16:13:18;21.11;55.92
65972;SHT31;52726;48.852;9.152;2023-09-19T16:15:43;21.11;56.39
65972;SHT31;52726;48.852;9.152;2023-09-19T16:18:09;21.07;55.42
65972;SHT31;52726;48.852;9.152;2023-09-19T16:20:35;21.06;55.66
65972;SHT31;52726;48.852;9.152;2023-09-19T16:23:04;21.03;57.63
65972;SHT31;52726;48.852;9.152;2023-09-19T16:25:30;21.00;57.91
65972;SHT31;52726;48.852;9.152;2023-09-19T16:27:55;20.94;57.33
65972;SHT31;52726;48.852;9.152;2023-09-19T16:30:20;20.89;57.92
65972;SHT31;52726;48.852;9.152;2023-09-19T16:32:46;20.87;56.84
65972;SHT31;52726;48.852;9.152;2023-09-19T16:35:11;20.83;58.09
65972;SHT31;52726;48.852;9.152;2023-09-19T16:37:37;20.83;58.75
65972;SHT31;52726;48.852;9.152;2023-09-19T16:40:04;20.75;59.79
65972;SHT31;52726;48.852;9.152;2023-09-19T16:42:30;20.72;58.94
65972;SHT31;52726;48.852;9.152;2023-09-19T16:44:56;20.65;60.81
65972;SHT31;52726;48.852;9.152;2023-09-19T16:47:23;20.59;61.84
65972;SHT31;52726;48.852;9.152;2023-09-19T16:49:48;20.47;60.56
65972;SHT31;52726;48.852;9.152;2023-09-19T16:52:14;20.44;59.70
65972;SHT31;52726;48.852;9.152;2023-09-19T16:54:39;20.39;59.45
65972;SHT31;52726;48.852;9.152;2023-09-19T16:57:07;20.39;59.53
65972;SHT31;52726;48.852;9.152;2023-09-19T16:59:33;20.37;62.10
65972;SHT31;52726;48.852;9.152;2023-09-19T17:01:58;20.29;61.50